PDT,Max TemperatureF,Mean TemperatureF,Min TemperatureF,Max Dew PointF,MeanDew PointF,Min DewpointF,Max Humidity, Mean Humidity, Min Humidity, Max Sea Level PressureIn, Mean Sea Level PressureIn, Min Sea Level PressureIn, Max VisibilityMiles, Mean VisibilityMiles, Min VisibilityMiles, Max Wind SpeedMPH, Mean Wind SpeedMPH, Max Gust SpeedMPH,PrecipitationIn, CloudCover, Events, WindDirDegrees
2013-10-1,81,70,59,61,56,50,80,63,45,29.93,29.89,29.86,10,10,10,10,3,15,0.00,1,,187
2013-10-2,77,71,64,60,57,55,78,64,50,29.96,29.92,29.87,10,10,10,10,4,15,0.00,5,,146
2013-10-3,76,70,63,59,57,55,78,66,53,29.92,29.88,29.82,10,10,9,13,4,18,0.00,6,,183
2013-10-4,93,77,61,59,36,5,90,47,4,30.02,29.93,29.88,10,9,6,21,4,28,0.00,2,,89
2013-10-5,94,85,75,37,20,12,12,9,5,30.11,30.05,30.01,10,9,2,30,14,39,0.00,0,,76
2013-10-6,95,75,55,39,28,14,47,26,5,30.07,30.00,29.94,10,10,10,10,3,15,0.00,0,,308
2013-10-7,84,72,59,58,45,31,47,35,22,29.96,29.92,29.88,10,10,10,10,2,14,0.00,0,,238
2013-10-8,74,68,61,56,54,53,84,67,49,29.92,29.87,29.82,10,10,7,12,4,28,0.00,5,,181
2013-10-9,68,64,59,54,51,46,78,65,52,29.82,29.76,29.71,10,9,1,16,8,26,0.10,6,Rain,195
2013-10-10,70,60,50,52,48,44,89,65,40,30.01,29.94,29.81,10,10,10,10,3,16,0.00,1,,198
2013-10-11,77,64,51,55,51,47,89,63,36,30.04,29.98,29.92,10,10,8,10,2,16,0.00,0,,277
2013-10-12,76,66,55,56,54,50,93,73,53,29.97,29.94,29.88,10,8,1,10,3,15,0.00,2,,172
2013-10-13,72,67,62,57,53,50,84,69,53,30.02,29.96,29.93,10,10,10,10,3,17,0.00,4,,189
2013-10-14,88,71,53,54,50,38,93,55,17,30.01,29.95,29.87,10,9,5,9,2,16,0.00,0,,292
2013-10-15,90,72,54,49,41,25,72,41,9,29.96,29.90,29.84,10,10,10,13,2,16,0.00,0,,172
2013-10-16,89,75,61,43,29,22,48,29,9,30.05,29.99,29.96,10,10,10,13,5,17,0.00,0,,24
2013-10-17,83,69,54,54,40,31,47,33,18,30.02,29.97,29.91,10,10,10,10,3,15,0.00,0,,170
2013-10-18,86,70,53,53,47,37,77,48,19,30.00,29.96,29.90,10,10,10,8,2,12,0.00,0,,274
2013-10-19,85,69,53,58,50,43,83,56,28,30.01,29.97,29.94,10,10,7,9,2,12,0.00,0,,222
2013-10-20,77,67,57,58,56,50,93,72,50,29.98,29.94,29.89,10,5,1,9,3,14,0.00,4,,109
2013-10-21,76,67,58,57,55,53,93,70,46,29.98,29.95,29.89,10,4,1,9,2,12,0.00,5,,194
2013-10-22,77,66,55,58,55,52,87,69,50,30.00,29.96,29.88,9,5,2,9,1,12,0.00,4,,224
2013-10-23,69,64,58,56,55,53,87,75,63,29.96,29.93,29.90,9,5,2,12,2,15,0.00,6,,215
2013-10-24,72,67,62,55,54,53,72,63,53,30.04,29.99,29.95,10,6,4,10,2,14,0.00,5,,244
2013-10-25,76,67,57,57,55,53,86,66,46,30.12,30.06,29.99,6,4,2,7,1,10,0.00,4,,305
2013-10-26,78,67,56,59,57,54,100,75,50,30.09,30.03,29.96,7,3,0,8,1,12,0.00,3,Fog,258
2013-10-27,71,65,58,59,57,54,97,82,66,29.96,29.90,29.81,10,5,0,10,4,14,0.00,6,Fog,155
2013-10-28,67,62,57,57,51,46,78,63,48,29.93,29.86,29.81,10,9,2,16,8,22,0.02,7,Rain,228
2013-10-29,68,60,52,50,48,45,89,67,45,30.00,29.96,29.92,10,10,10,13,3,17,0.00,3,,241
2013-10-30,73,62,50,51,47,44,83,59,35,30.06,30.01,29.96,10,10,10,10,1,14,0.00,0,,221
2013-10-31,83,66,49,48,43,31,86,51,15,30.08,30.02,29.96,10,10,10,10,1,14,0.00,0,,242